sensor_id;sensor_type;location;lat;lon;timestamp;pressure;altitude;pressure_sealevel;temperature;humidity
48527;BME280;34317;51.660;5.824;2022-11-20T00:01:21;101297.56;;;2.08;53.93
48527;BME280;34317;51.660;5.824;2022-11-20T00:03:48;101292.34;;;2.07;54.01
48527;BME280;34317;51.660;5.824;2022-11-20T00:06:18;101292.34;;;2.05;54.07
48527;BME280;34317;51.660;5.824;2022-11-20T00:08:46;101292.34;;;2.05;53.91
48527;BME280;34317;51.660;5.824;2022-11-20T00:11:16;101290.63;;;2.04;54.24
48527;BME280;34317;51.660;5.824;2022-11-20T00:13:44;101273.19;;;2.03;54.23
48527;BME280;34317;51.660;5.824;2022-11-20T00:16:15;101281.88;;;2.05;54.26
48527;BME280;34317;51.660;5.824;2022-11-20T00:18:42;101282.78;;;2.06;54.26
48527;BME280;34317;51.660;5.824;2022-11-20T00:21:12;101280.16;;;2.04;54.19
48527;BME280;34317;51.660;5.824;2022-11-20T00:23:41;101269.72;;;2.04;54.13
48527;BME280;34317;51.660;5.824;2022-11-20T00:26:19;101270.59;;;2.02;54.28
48527;BME280;34317;51.660;5.824;2022-11-20T00:28:51;101262.78;;;2.00;54.31
48527;BME280;34317;51.660;5.824;2022-11-20T00:31:18;101269.72;;;2.01;54.34
48527;BME280;34317;51.660;5.824;2022-11-20T00:33:46;101265.38;;;2.00;54.20
48527;BME280;34317;51.660;5.824;2022-11-20T00:36:15;101264.53;;;1.98;54.21
48527;BME280;34317;51.660;5.824;2022-11-20T00:38:43;101271.47;;;1.98;54.33
48527;BME280;34317;51.660;5.824;2022-11-20T00:41:13;101266.28;;;1.96;54.34
48527;BME280;34317;51.660;5.824;2022-11-20T00:43:40;101259.28;;;1.95;54.23
48527;BME280;34317;51.660;5.824;2022-11-20T00:46:10;101262.75;;;1.94;54.31
48527;BME280;34317;51.660;5.824;2022-11-20T00:48:37;101266.28;;;1.93;54.13
48527;BME280;34317;51.660;5.824;2022-11-20T00:51:04;101261.94;;;1.90;54.35
48527;BME280;34317;51.660;5.824;2022-11-20T00:53:31;101262.78;;;1.91;54.31
48527;BME280;34317;51.660;5.824;2022-11-20T00:56:04;101254.97;;;1.89;54.48
48527;BME280;34317;51.660;5.824;2022-11-20T00:58:35;101265.41;;;1.88;54.32
48527;BME280;34317;51.660;5.824;2022-11-20T01:01:11;101254.09;;;1.86;54.33
48527;BME280;34317;51.660;5.824;2022-11-20T01:03:41;101255.84;;;1.84;54.05
48527;BME280;34317;51.660;5.824;2022-11-20T01:08:48;101250.63;;;1.78;54.27
48527;BME280;34317;51.660;5.824;2022-11-20T01:11:18;101250.63;;;1.78;54.54
48527;BME280;34317;51.660;5.824;2022-11-20T01:13:47;101247.16;;;1.75;54.47
48527;BME280;34317;51.660;5.824;2022-11-20T01:16:19;101252.38;;;1.75;54.61
48527;BME280;34317;51.660;5.824;2022-11-20T01:18:49;101243.69;;;1.73;54.78
48527;BME280;34317;51.660;5.824;2022-11-20T01:21:20;101244.56;;;1.72;54.58
48527;BME280;34317;51.660;5.824;2022-11-20T01:23:48;101241.06;;;1.70;54.57
48527;BME280;34317;51.660;5.824;2022-11-20T01:26:23;101238.47;;;1.70;54.49
48527;BME280;34317;51.660;5.824;2022-11-20T01:28:51;101243.69;;;1.70;54.52
48527;BME280;34317;51.660;5.824;2022-11-20T01:31:22;101238.47;;;1.70;54.46
48527;BME280;34317;51.660;5.824;2022-11-20T01:33:52;101247.16;;;1.69;54.36
48527;BME280;34317;51.660;5.824;2022-11-20T01:36:21;101245.44;;;1.68;54.57
48527;BME280;34317;51.660;5.824;2022-11-20T01:38:51;101241.97;;;1.66;54.67
48527;BME280;34317;51.660;5.824;2022-11-20T01:41:20;101245.44;;;1.64;54.52
48527;BME280;34317;51.660;5.824;2022-11-20T01:44:06;101248.06;;;1.62;54.65
48527;BME280;34317;51.660;5.824;2022-11-20T01:46:36;101246.31;;;1.61;54.51
48527;BME280;34317;51.660;5.824;2022-11-20T01:49:15;101240.22;;;1.59;54.75
48527;BME280;34317;51.660;5.824;2022-11-20T01:51:59;101241.97;;;1.57;54.63
48527;BME280;34317;51.660;5.824;2022-11-20T01:54:35;101240.22;;;1.56;54.73
48527;BME280;34317;51.660;5.824;2022-11-20T01:57:05;101244.59;;;1.55;54.65
48527;BME280;34317;51.660;5.824;2022-11-20T01:59:34;101243.72;;;1.55;54.65
48527;BME280;34317;51.660;5.824;2022-11-20T02:02:03;101233.28;;;1.52;54.70
48527;BME280;34317;51.660;5.824;2022-11-20T02:04:30;101235.03;;;1.50;54.76
48527;BME280;34317;51.660;5.824;2022-11-20T02:07:00;101228.06;;;1.50;54.66
48527;BME280;34317;51.660;5.824;2022-11-20T02:09:28;101227.19;;;1.51;54.87
48527;BME280;34317;51.660;5.824;2022-11-20T02:11:56;101226.34;;;1.51;54.69
48527;BME280;34317;51.660;5.824;2022-11-20T02:14:24;101228.06;;;1.52;54.83
48527;BME280;34317;51.660;5.824;2022-11-20T02:16:52;101232.41;;;1.53;54.87
48527;BME280;34317;51.660;5.824;2022-11-20T02:19:28;101228.06;;;1.52;54.69
48527;BME280;34317;51.660;5.824;2022-11-20T02:22:09;101224.56;;;1.50;54.70
48527;BME280;34317;51.660;5.824;2022-11-20T02:24:41;101231.53;;;1.48;54.90
48527;BME280;34317;51.660;5.824;2022-11-20T02:27:15;101222.84;;;1.46;54.73
48527;BME280;34317;51.660;5.824;2022-11-20T02:29:53;101222.84;;;1.43;54.91
48527;BME280;34317;51.660;5.824;2022-11-20T02:32:31;101223.72;;;1.40;54.71
48527;BME280;34317;51.660;5.824;2022-11-20T02:35:06;101229.84;;;1.38;54.96
48527;BME280;34317;51.660;5.824;2022-11-20T02:37:37;101217.63;;;1.36;54.83
48527;BME280;34317;51.660;5.824;2022-11-20T02:40:05;101210.66;;;1.35;54.89
48527;BME280;34317;51.660;5.824;2022-11-20T02:42:32;101214.16;;;1.34;54.83
48527;BME280;34317;51.660;5.824;2022-11-20T02:44:59;101228.06;;;1.33;54.65
48527;BME280;34317;51.660;5.824;2022-11-20T02:47:26;101215.03;;;1.30;54.86
48527;BME280;34317;51.660;5.824;2022-11-20T02:49:53;101217.66;;;1.27;54.90
48527;BME280;34317;51.660;5.824;2022-11-20T02:52:21;101220.25;;;1.27;55.08
48527;BME280;34317;51.660;5.824;2022-11-20T02:54:48;101215.91;;;1.26;54.85
48527;BME280;34317;51.660;5.824;2022-11-20T02:57:15;101222.88;;;1.27;55.03
48527;BME280;34317;51.660;5.824;2022-11-20T02:59:42;101232.44;;;1.28;55.16
48527;BME280;34317;51.660;5.824;2022-11-20T03:02:09;101242.00;;;1.29;55.44
48527;BME280;34317;51.660;5.824;2022-11-20T03:04:36;101240.28;;;1.28;55.27
48527;BME280;34317;51.660;5.824;2022-11-20T03:07:04;101242.88;;;1.28;55.26
48527;BME280;34317;51.660;5.824;2022-11-20T03:09:31;101240.28;;;1.28;55.00
48527;BME280;34317;51.660;5.824;2022-11-20T03:11:58;101241.13;;;1.29;55.25
48527;BME280;34317;51.660;5.824;2022-11-20T03:14:25;101230.69;;;1.29;55.15
48527;BME280;34317;51.660;5.824;2022-11-20T03:16:52;101231.56;;;1.29;55.35
48527;BME280;34317;51.660;5.824;2022-11-20T03:19:19;101226.34;;;1.29;55.14
48527;BME280;34317;51.660;5.824;2022-11-20T03:21:47;101219.41;;;1.28;55.37
48527;BME280;34317;51.660;5.824;2022-11-20T03:24:14;101219.41;;;1.28;55.36
48527;BME280;34317;51.660;5.824;2022-11-20T03:26:41;101222.88;;;1.30;55.25
48527;BME280;34317;51.660;5.824;2022-11-20T03:29:08;101212.44;;;1.27;55.02
48527;BME280;34317;51.660;5.824;2022-11-20T03:31:37;101211.56;;;1.25;55.32
48527;BME280;34317;51.660;5.824;2022-11-20T03:34:08;101211.56;;;1.24;55.11
48527;BME280;34317;51.660;5.824;2022-11-20T03:36:40;101215.91;;;1.23;55.25
48527;BME280;34317;51.660;5.824;2022-11-20T03:39:08;101215.91;;;1.23;55.29
48527;BME280;34317;51.660;5.824;2022-11-20T03:41:37;101211.59;;;1.21;55.16
48527;BME280;34317;51.660;5.824;2022-11-20T03:44:08;101205.47;;;1.20;55.28
48527;BME280;34317;51.660;5.824;2022-11-20T03:46:36;101212.44;;;1.21;55.22
48527;BME280;34317;51.660;5.824;2022-11-20T03:49:03;101212.44;;;1.21;55.26
48527;BME280;34317;51.660;5.824;2022-11-20T03:51:32;101207.22;;;1.21;55.30
48527;BME280;34317;51.660;5.824;2022-11-20T03:54:02;101200.25;;;1.20;55.22
48527;BME280;34317;51.660;5.824;2022-11-20T03:56:31;101208.06;;;1.19;55.36
48527;BME280;34317;51.660;5.824;2022-11-20T03:58:59;101202.88;;;1.15;54.89
48527;BME280;34317;51.660;5.824;2022-11-20T04:01:29;101198.50;;;1.13;55.11
48527;BME280;34317;51.660;5.824;2022-11-20T04:03:57;101196.78;;;1.09;55.29
48527;BME280;34317;51.660;5.824;2022-11-20T04:06:27;101191.59;;;1.06;54.88
48527;BME280;34317;51.660;5.824;2022-11-20T04:08:55;101183.75;;;1.01;55.04
48527;BME280;34317;51.660;5.824;2022-11-20T04:11:34;101186.38;;;0.96;55.20
48527;BME280;34317;51.660;5.824;2022-11-20T04:14:04;101184.63;;;0.95;55.38
48527;BME280;34317;51.660;5.824;2022-11-20T04:16:34;101179.41;;;0.95;55.46
48527;BME280;34317;51.660;5.824;2022-11-20T04:19:03;101170.72;;;0.93;55.09
48527;BME280;34317;51.660;5.824;2022-11-20T04:21:31;101174.19;;;0.89;54.94
48527;BME280;34317;51.660;5.824;2022-11-20T04:23:58;101174.19;;;0.86;55.08
48527;BME280;34317;51.660;5.824;2022-11-20T04:26:27;101177.66;;;0.82;55.38
48527;BME280;34317;51.660;5.824;2022-11-20T04:28:55;101179.41;;;0.80;55.13
48527;BME280;34317;51.660;5.824;2022-11-20T04:31:25;101182.84;;;0.79;55.37
48527;BME280;34317;51.660;5.824;2022-11-20T04:33:52;101177.66;;;0.79;55.38
48527;BME280;34317;51.660;5.824;2022-11-20T04:36:24;101180.25;;;0.79;55.39
48527;BME280;34317;51.660;5.824;2022-11-20T04:38:53;101169.81;;;0.79;55.22
48527;BME280;34317;51.660;5.824;2022-11-20T04:41:28;101162.00;;;0.79;55.41
48527;BME280;34317;51.660;5.824;2022-11-20T04:43:58;101160.28;;;0.78;55.58
48527;BME280;34317;51.660;5.824;2022-11-20T04:46:35;101162.91;;;0.80;55.55
48527;BME280;34317;51.660;5.824;2022-11-20T04:49:03;101164.63;;;0.82;55.63
48527;BME280;34317;51.660;5.824;2022-11-20T04:51:30;101162.00;;;0.82;55.50
48527;BME280;34317;51.660;5.824;2022-11-20T04:53:58;101167.22;;;0.82;55.47
48527;BME280;34317;51.660;5.824;2022-11-20T04:56:25;101166.38;;;0.82;55.73
48527;BME280;34317;51.660;5.824;2022-11-20T04:58:52;101167.22;;;0.82;55.60
48527;BME280;34317;51.660;5.824;2022-11-20T05:01:23;101157.69;;;0.80;55.39
48527;BME280;34317;51.660;5.824;2022-11-20T05:03:51;101156.81;;;0.76;55.23
48527;BME280;34317;51.660;5.824;2022-11-20T05:06:21;101152.47;;;0.70;55.56
48527;BME280;34317;51.660;5.824;2022-11-20T05:08:49;101158.53;;;0.68;55.61
48527;BME280;34317;51.660;5.824;2022-11-20T05:11:19;101161.13;;;0.68;55.58
48527;BME280;34317;51.660;5.824;2022-11-20T05:13:47;101160.28;;;0.69;55.66
48527;BME280;34317;51.660;5.824;2022-11-20T05:16:19;101158.53;;;0.68;55.45
48527;BME280;34317;51.660;5.824;2022-11-20T05:18:47;101159.41;;;0.67;55.54
48527;BME280;34317;51.660;5.824;2022-11-20T05:21:15;101158.53;;;0.66;55.77
48527;BME280;34317;51.660;5.824;2022-11-20T05:23:44;101151.59;;;0.67;55.80
48527;BME280;34317;51.660;5.824;2022-11-20T05:26:17;101145.50;;;0.68;55.95
48527;BME280;34317;51.660;5.824;2022-11-20T05:28:45;101139.41;;;0.69;55.79
48527;BME280;34317;51.660;5.824;2022-11-20T05:31:22;101144.63;;;0.69;55.71
48527;BME280;34317;51.660;5.824;2022-11-20T05:33:54;101149.84;;;0.69;55.60
48527;BME280;34317;51.660;5.824;2022-11-20T05:36:21;101142.03;;;0.69;55.87
48527;BME280;34317;51.660;5.824;2022-11-20T05:38:48;101145.50;;;0.69;55.69
48527;BME280;34317;51.660;5.824;2022-11-20T05:41:19;101142.03;;;0.69;55.67
48527;BME280;34317;51.660;5.824;2022-11-20T05:43:47;101140.28;;;0.71;55.68
48527;BME280;34317;51.660;5.824;2022-11-20T05:46:16;101141.16;;;0.70;55.87
48527;BME280;34317;51.660;5.824;2022-11-20T05:48:46;101141.16;;;0.70;55.84
48527;BME280;34317;51.660;5.824;2022-11-20T05:51:16;101145.50;;;0.69;55.78
48527;BME280;34317;51.660;5.824;2022-11-20T05:53:44;101142.88;;;0.68;55.90
48527;BME280;34317;51.660;5.824;2022-11-20T05:56:16;101145.50;;;0.68;55.67
48527;BME280;34317;51.660;5.824;2022-11-20T05:58:45;101142.88;;;0.68;55.58
48527;BME280;34317;51.660;5.824;2022-11-20T06:01:23;101144.63;;;0.69;55.93
48527;BME280;34317;51.660;5.824;2022-11-20T06:03:52;101146.38;;;0.70;56.08
48527;BME280;34317;51.660;5.824;2022-11-20T06:06:19;101144.66;;;0.72;55.86
48527;BME280;34317;51.660;5.824;2022-11-20T06:08:47;101144.63;;;0.70;55.73
48527;BME280;34317;51.660;5.824;2022-11-20T06:11:15;101148.09;;;0.71;55.69
48527;BME280;34317;51.660;5.824;2022-11-20T06:13:42;101153.31;;;0.71;55.48
48527;BME280;34317;51.660;5.824;2022-11-20T06:16:11;101153.31;;;0.71;55.91
48527;BME280;34317;51.660;5.824;2022-11-20T06:18:39;101162.03;;;0.70;55.96
48527;BME280;34317;51.660;5.824;2022-11-20T06:21:15;101162.00;;;0.67;55.63
48527;BME280;34317;51.660;5.824;2022-11-20T06:23:43;101168.97;;;0.65;55.62
48527;BME280;34317;51.660;5.824;2022-11-20T06:26:20;101167.22;;;0.64;55.31
48527;BME280;34317;51.660;5.824;2022-11-20T06:28:47;101158.50;;;0.60;55.88
48527;BME280;34317;51.660;5.824;2022-11-20T06:31:14;101160.25;;;0.60;55.42
48527;BME280;34317;51.660;5.824;2022-11-20T06:33:42;101164.63;;;0.59;55.54
48527;BME280;34317;51.660;5.824;2022-11-20T06:36:10;101162.00;;;0.61;55.57
48527;BME280;34317;51.660;5.824;2022-11-20T06:38:37;101163.75;;;0.62;55.63
48527;BME280;34317;51.660;5.824;2022-11-20T06:41:05;101156.78;;;0.64;55.62
48527;BME280;34317;51.660;5.824;2022-11-20T06:43:32;101164.63;;;0.65;55.72
48527;BME280;34317;51.660;5.824;2022-11-20T06:45:59;101160.25;;;0.66;55.45
48527;BME280;34317;51.660;5.824;2022-11-20T06:48:26;101153.31;;;0.65;55.47
48527;BME280;34317;51.660;5.824;2022-11-20T06:50:53;101159.41;;;0.65;55.14
48527;BME280;34317;51.660;5.824;2022-11-20T06:53:21;101154.19;;;0.67;55.34
48527;BME280;34317;51.660;5.824;2022-11-20T06:55:48;101153.31;;;0.68;55.62
48527;BME280;34317;51.660;5.824;2022-11-20T06:58:15;101156.81;;;0.70;55.58
48527;BME280;34317;51.660;5.824;2022-11-20T07:00:42;101158.56;;;0.74;55.48
48527;BME280;34317;51.660;5.824;2022-11-20T07:03:10;101151.59;;;0.76;55.43
48527;BME280;34317;51.660;5.824;2022-11-20T07:05:37;101163.75;;;0.77;55.45
48527;BME280;34317;51.660;5.824;2022-11-20T07:08:05;101156.81;;;0.76;55.27
48527;BME280;34317;51.660;5.824;2022-11-20T07:10:32;101162.03;;;0.76;55.44
48527;BME280;34317;51.660;5.824;2022-11-20T07:12:59;101155.06;;;0.75;55.35
48527;BME280;34317;51.660;5.824;2022-11-20T07:15:26;101158.53;;;0.77;55.51
48527;BME280;34317;51.660;5.824;2022-11-20T07:17:53;101144.63;;;0.78;55.44
48527;BME280;34317;51.660;5.824;2022-11-20T07:20:20;101158.53;;;0.80;55.48
48527;BME280;34317;51.660;5.824;2022-11-20T07:22:47;101154.19;;;0.81;55.48
48527;BME280;34317;51.660;5.824;2022-11-20T07:25:19;101151.59;;;0.82;55.58
48527;BME280;34317;51.660;5.824;2022-11-20T07:27:46;101151.59;;;0.82;55.56
48527;BME280;34317;51.660;5.824;2022-11-20T07:30:13;101146.38;;;0.85;55.76
48527;BME280;34317;51.660;5.824;2022-11-20T07:32:40;101147.25;;;0.86;55.51
48527;BME280;34317;51.660;5.824;2022-11-20T07:35:07;101148.09;;;0.86;55.44
48527;BME280;34317;51.660;5.824;2022-11-20T07:37:35;101149.84;;;0.87;55.50
48527;BME280;34317;51.660;5.824;2022-11-20T07:40:02;101154.19;;;0.88;55.52
48527;BME280;34317;51.660;5.824;2022-11-20T07:42:29;101148.13;;;0.92;55.53
48527;BME280;34317;51.660;5.824;2022-11-20T07:44:56;101153.31;;;0.95;55.48
48527;BME280;34317;51.660;5.824;2022-11-20T07:47:22;101154.19;;;0.96;55.43
48527;BME280;34317;51.660;5.824;2022-11-20T07:49:49;101160.25;;;1.00;55.70
48527;BME280;34317;51.660;5.824;2022-11-20T07:52:44;101156.81;;;1.04;55.66
48527;BME280;34317;51.660;5.824;2022-11-20T07:55:11;101152.44;;;1.07;55.75
48527;BME280;34317;51.660;5.824;2022-11-20T07:57:38;101149.84;;;1.12;55.83
48527;BME280;34317;51.660;5.824;2022-11-20T08:00:05;101150.69;;;1.19;55.80
48527;BME280;34317;51.660;5.824;2022-11-20T08:02:38;101148.09;;;1.26;55.78
48527;BME280;34317;51.660;5.824;2022-11-20T08:05:06;101142.84;;;1.32;56.09
48527;BME280;34317;51.660;5.824;2022-11-20T08:07:37;101149.78;;;1.40;55.92
48527;BME280;34317;51.660;5.824;2022-11-20T08:10:04;101153.25;;;1.48;55.91
48527;BME280;34317;51.660;5.824;2022-11-20T08:12:31;101154.97;;;1.55;55.91
48527;BME280;34317;51.660;5.824;2022-11-20T08:15:17;101161.03;;;1.63;55.87
48527;BME280;34317;51.660;5.824;2022-11-20T08:17:43;101158.38;;;1.69;56.10
48527;BME280;34317;51.660;5.824;2022-11-20T08:20:30;101158.34;;;1.79;56.05
48527;BME280;34317;51.660;5.824;2022-11-20T08:23:00;101151.38;;;1.87;55.96
48527;BME280;34317;51.660;5.824;2022-11-20T08:25:31;101144.38;;;1.95;55.93
48527;BME280;34317;51.660;5.824;2022-11-20T08:27:59;101142.56;;;2.03;55.96
48527;BME280;34317;51.660;5.824;2022-11-20T08:30:32;101121.66;;;2.09;56.04
48527;BME280;34317;51.660;5.824;2022-11-20T08:33:03;101119.88;;;2.18;55.96
48527;BME280;34317;51.660;5.824;2022-11-20T08:35:33;101128.56;;;2.23;55.88
48527;BME280;34317;51.660;5.824;2022-11-20T08:38:02;101127.66;;;2.28;55.70
48527;BME280;34317;51.660;5.824;2022-11-20T08:40:29;101117.16;;;2.31;55.85
48527;BME280;34317;51.660;5.824;2022-11-20T08:42:55;101116.25;;;2.37;55.84
48527;BME280;34317;51.660;5.824;2022-11-20T08:45:22;101120.56;;;2.44;55.91
48527;BME280;34317;51.660;5.824;2022-11-20T08:47:49;101124.00;;;2.52;56.00
48527;BME280;34317;51.660;5.824;2022-11-20T08:50:16;101121.28;;;2.62;56.09
48527;BME280;34317;51.660;5.824;2022-11-20T08:52:45;101117.75;;;2.72;56.01
48527;BME280;34317;51.660;5.824;2022-11-20T08:55:12;101122.91;;;2.81;56.08
48527;BME280;34317;51.660;5.824;2022-11-20T08:57:38;101127.16;;;2.90;55.90
48527;BME280;34317;51.660;5.824;2022-11-20T09:00:06;101119.28;;;2.95;55.71
48527;BME280;34317;51.660;5.824;2022-11-20T09:02:34;101122.75;;;2.97;55.87
48527;BME280;34317;51.660;5.824;2022-11-20T09:05:02;101124.47;;;3.01;55.63
48527;BME280;34317;51.660;5.824;2022-11-20T09:07:29;101117.44;;;3.06;55.80
48527;BME280;34317;51.660;5.824;2022-11-20T09:09:56;101113.00;;;3.12;56.07
48527;BME280;34317;51.660;5.824;2022-11-20T09:12:43;101121.66;;;3.21;55.97
48527;BME280;34317;51.660;5.824;2022-11-20T09:15:10;101115.50;;;3.26;55.77
48527;BME280;34317;51.660;5.824;2022-11-20T09:17:37;101117.16;;;3.34;55.97
48527;BME280;34317;51.660;5.824;2022-11-20T09:20:04;101109.22;;;3.41;56.09
48527;BME280;34317;51.660;5.824;2022-11-20T09:22:31;101103.00;;;3.50;56.04
48527;BME280;34317;51.660;5.824;2022-11-20T09:24:59;101106.41;;;3.58;55.80
48527;BME280;34317;51.660;5.824;2022-11-20T09:27:26;101099.34;;;3.65;55.99
48527;BME280;34317;51.660;5.824;2022-11-20T09:29:52;101101.00;;;3.70;55.84
48527;BME280;34317;51.660;5.824;2022-11-20T09:32:19;101097.47;;;3.75;55.81
48527;BME280;34317;51.660;5.824;2022-11-20T09:34:46;101092.19;;;3.78;55.62
48527;BME280;34317;51.660;5.824;2022-11-20T09:37:13;101095.63;;;3.83;56.00
48527;BME280;34317;51.660;5.824;2022-11-20T09:39:40;101093.78;;;3.88;55.99
48527;BME280;34317;51.660;5.824;2022-11-20T09:44:46;101075.22;;;4.05;56.13
48527;BME280;34317;51.660;5.824;2022-11-20T09:47:32;101086.47;;;4.15;56.18
48527;BME280;34317;51.660;5.824;2022-11-20T09:52:44;101084.44;;;4.32;56.11
48527;BME280;34317;51.660;5.824;2022-11-20T09:55:16;101076.47;;;4.38;55.83
48527;BME280;34317;51.660;5.824;2022-11-20T09:57:44;101072.88;;;4.44;56.06
48527;BME280;34317;51.660;5.824;2022-11-20T10:00:13;101069.28;;;4.51;56.05
48527;BME280;34317;51.660;5.824;2022-11-20T10:02:42;101073.56;;;4.57;55.85
48527;BME280;34317;51.660;5.824;2022-11-20T10:05:17;101067.31;;;4.64;55.90
48527;BME280;34317;51.660;5.824;2022-11-20T10:10:34;101075.81;;;4.78;55.91
48527;BME280;34317;51.660;5.824;2022-11-20T10:21:35;101059.56;;;5.06;55.77
48527;BME280;34317;51.660;5.824;2022-11-20T10:29:12;101035.53;;;5.28;55.91
48527;BME280;34317;51.660;5.824;2022-11-20T10:31:41;101035.41;;;5.34;55.91
48527;BME280;34317;51.660;5.824;2022-11-20T10:36:46;101013.31;;;5.42;55.59
48527;BME280;34317;51.660;5.824;2022-11-20T10:41:55;101014.94;;;5.50;55.62
48527;BME280;34317;51.660;5.824;2022-11-20T10:44:26;100999.97;;;5.53;55.74
48527;BME280;34317;51.660;5.824;2022-11-20T10:47:13;101005.16;;;5.56;55.89
48527;BME280;34317;51.660;5.824;2022-11-20T10:49:41;100984.06;;;5.59;55.46
48527;BME280;34317;51.660;5.824;2022-11-20T10:52:14;100984.00;;;5.62;55.88
48527;BME280;34317;51.660;5.824;2022-11-20T11:00:10;100957.47;;;5.75;55.91
48527;BME280;34317;51.660;5.824;2022-11-20T11:02:41;100960.91;;;5.77;55.81
48527;BME280;34317;51.660;5.824;2022-11-20T11:05:15;100955.56;;;5.80;55.66
48527;BME280;34317;51.660;5.824;2022-11-20T11:07:44;100952.00;;;5.84;56.14
48527;BME280;34317;51.660;5.824;2022-11-20T11:10:59;100932.69;;;5.85;55.96
48527;BME280;34317;51.660;5.824;2022-11-20T11:12:59;100936.97;;;5.89;55.78
48527;BME280;34317;51.660;5.824;2022-11-20T11:15:29;100937.72;;;5.94;55.76
48527;BME280;34317;51.660;5.824;2022-11-20T11:17:57;100937.69;;;5.97;56.04
48527;BME280;34317;51.660;5.824;2022-11-20T11:20:24;100927.00;;;6.03;55.87
48527;BME280;34317;51.660;5.824;2022-11-20T11:22:52;100916.34;;;6.10;55.90
48527;BME280;34317;51.660;5.824;2022-11-20T11:27:53;100909.97;;;6.18;56.00
48527;BME280;34317;51.660;5.824;2022-11-20T11:30:22;100910.66;;;6.25;56.01
48527;BME280;34317;51.660;5.824;2022-11-20T11:32:50;100911.44;;;6.30;56.00
48527;BME280;34317;51.660;5.824;2022-11-20T11:35:19;100899.00;;;6.37;55.92
48527;BME280;34317;51.660;5.824;2022-11-20T11:37:46;100897.91;;;6.44;56.01
48527;BME280;34317;51.660;5.824;2022-11-20T11:40:14;100899.50;;;6.50;56.15
48527;BME280;34317;51.660;5.824;2022-11-20T11:42:52;100902.88;;;6.55;55.89
48527;BME280;34317;51.660;5.824;2022-11-20T11:45:19;100902.81;;;6.58;55.83
48527;BME280;34317;51.660;5.824;2022-11-20T11:47:47;100899.16;;;6.62;55.92
48527;BME280;34317;51.660;5.824;2022-11-20T11:50:15;100900.81;;;6.66;55.98
48527;BME280;34317;51.660;5.824;2022-11-20T11:58:08;100890.09;;;6.72;56.07
48527;BME280;34317;51.660;5.824;2022-11-20T12:00:36;100891.84;;;6.73;56.02
48527;BME280;34317;51.660;5.824;2022-11-20T12:03:09;100887.38;;;6.75;55.76
48527;BME280;34317;51.660;5.824;2022-11-20T12:05:42;100883.78;;;6.78;56.06
48527;BME280;34317;51.660;5.824;2022-11-20T12:08:27;100879.31;;;6.81;55.84
48527;BME280;34317;51.660;5.824;2022-11-20T12:11:03;100869.56;;;6.85;55.99
48527;BME280;34317;51.660;5.824;2022-11-20T12:16:00;100860.72;;;6.88;55.73
48527;BME280;34317;51.660;5.824;2022-11-20T12:18:28;100851.91;;;6.89;55.84
48527;BME280;34317;51.660;5.824;2022-11-20T12:21:02;100841.38;;;6.89;55.87
48527;BME280;34317;51.660;5.824;2022-11-20T12:23:35;100838.66;;;6.92;55.90
48527;BME280;34317;51.660;5.824;2022-11-20T12:26:14;100828.00;;;6.95;56.03
48527;BME280;34317;51.660;5.824;2022-11-20T12:28:49;100821.84;;;6.96;56.11
48527;BME280;34317;51.660;5.824;2022-11-20T12:31:26;100831.38;;;7.00;56.25
48527;BME280;34317;51.660;5.824;2022-11-20T12:39:17;100802.94;;;7.11;56.11
48527;BME280;34317;51.660;5.824;2022-11-20T12:50:12;100778.22;;;7.15;55.92
48527;BME280;34317;51.660;5.824;2022-11-20T12:57:44;100764.03;;;7.19;56.00
48527;BME280;34317;51.660;5.824;2022-11-20T13:07:46;100742.06;;;7.20;56.19
48527;BME280;34317;51.660;5.824;2022-11-20T13:10:15;100746.44;;;7.21;55.79
48527;BME280;34317;51.660;5.824;2022-11-20T13:12:46;100740.25;;;7.22;56.26
48527;BME280;34317;51.660;5.824;2022-11-20T13:15:31;100740.22;;;7.24;56.36
48527;BME280;34317;51.660;5.824;2022-11-20T13:18:01;100727.84;;;7.26;56.02
48527;BME280;34317;51.660;5.824;2022-11-20T13:20:30;100726.88;;;7.29;56.32
48527;BME280;34317;51.660;5.824;2022-11-20T13:22:57;100720.66;;;7.31;56.08
48527;BME280;34317;51.660;5.824;2022-11-20T13:25:29;100711.78;;;7.34;56.37
48527;BME280;34317;51.660;5.824;2022-11-20T13:27:57;100711.69;;;7.37;56.23
48527;BME280;34317;51.660;5.824;2022-11-20T13:30:27;100707.22;;;7.39;56.51
48527;BME280;34317;51.660;5.824;2022-11-20T13:33:08;100701.81;;;7.42;56.46
48527;BME280;34317;51.660;5.824;2022-11-20T13:35:36;100682.47;;;7.43;56.31
48527;BME280;34317;51.660;5.824;2022-11-20T13:40:31;100675.28;;;7.48;56.53
48527;BME280;34317;51.660;5.824;2022-11-20T13:43:14;100657.66;;;7.50;56.43
48527;BME280;34317;51.660;5.824;2022-11-20T13:45:42;100664.53;;;7.54;56.50
48527;BME280;34317;51.660;5.824;2022-11-20T13:48:20;100670.59;;;7.56;56.14
48527;BME280;34317;51.660;5.824;2022-11-20T13:51:07;100653.88;;;7.57;56.17
48527;BME280;34317;51.660;5.824;2022-11-20T13:56:11;100644.16;;;7.59;56.28
48527;BME280;34317;51.660;5.824;2022-11-20T14:01:21;100627.41;;;7.60;56.31
48527;BME280;34317;51.660;5.824;2022-11-20T14:03:49;100627.41;;;7.60;56.34
48527;BME280;34317;51.660;5.824;2022-11-20T14:06:32;100630.97;;;7.59;56.44
48527;BME280;34317;51.660;5.824;2022-11-20T14:08:59;100630.09;;;7.59;56.25
48527;BME280;34317;51.660;5.824;2022-11-20T14:11:27;100625.69;;;7.59;56.11
48527;BME280;34317;51.660;5.824;2022-11-20T14:13:59;100611.59;;;7.60;56.53
48527;BME280;34317;51.660;5.824;2022-11-20T14:16:27;100602.78;;;7.62;56.29
48527;BME280;34317;51.660;5.824;2022-11-20T14:18:55;100592.25;;;7.62;56.38
48527;BME280;34317;51.660;5.824;2022-11-20T14:21:23;100581.63;;;7.63;56.46
48527;BME280;34317;51.660;5.824;2022-11-20T14:23:51;100596.47;;;7.66;56.19
48527;BME280;34317;51.660;5.824;2022-11-20T14:26:18;100590.28;;;7.67;56.58
48527;BME280;34317;51.660;5.824;2022-11-20T14:28:49;100586.72;;;7.68;56.39
48527;BME280;34317;51.660;5.824;2022-11-20T14:31:18;100586.69;;;7.69;56.64
48527;BME280;34317;51.660;5.824;2022-11-20T14:33:47;100581.34;;;7.71;56.53